createdAt,value
2022-09-04T00:02:29.541Z,73.69
2022-09-04T00:05:12.869Z,73.57
2022-09-04T00:08:21.577Z,73.66
2022-09-04T00:11:06.900Z,73.05
2022-09-04T00:13:39.624Z,73.01
2022-09-04T00:16:36.664Z,73.97
2022-09-04T00:19:10.124Z,74.39
2022-09-04T00:21:57.888Z,74.98
2022-09-04T00:24:43.180Z,75.30
2022-09-04T00:27:16.905Z,74.52
2022-09-04T00:29:52.566Z,74.75
2022-09-04T00:32:27.775Z,74.28
2022-09-04T00:35:03.501Z,74.75
2022-09-04T00:37:37.364Z,76.07
2022-09-04T00:40:38.717Z,75.93
2022-09-04T00:43:16.787Z,76.40
2022-09-04T00:46:07.841Z,76.52
2022-09-04T00:49:09.744Z,75.96
2022-09-04T00:51:56.935Z,74.51
2022-09-04T00:55:07.146Z,75.82
2022-09-04T00:57:51.805Z,76.17
2022-09-04T01:00:20.602Z,76.94
2022-09-04T01:03:09.031Z,77.76
2022-09-04T01:05:48.741Z,78.11
2022-09-04T01:08:30.265Z,78.92
2022-09-04T01:11:17.382Z,78.65
2022-09-04T01:14:15.961Z,79.79
2022-09-04T01:17:00.622Z,78.40
2022-09-04T01:20:05.776Z,77.22
2022-09-04T01:23:06.035Z,77.15
2022-09-04T01:26:06.525Z,77.79
2022-09-04T01:28:54.495Z,77.50
2022-09-04T01:31:32.151Z,77.27
2022-09-04T01:34:13.883Z,78.29
2022-09-04T01:36:51.761Z,77.89
2022-09-04T01:39:23.661Z,77.48
2022-09-04T01:41:58.497Z,78.22
2022-09-04T01:44:25.136Z,78.42
2022-09-04T01:47:16.069Z,78.59
2022-09-04T01:49:42.641Z,79.26
2022-09-04T01:52:34.506Z,79.48
2022-09-04T01:55:40.155Z,80.00
2022-09-04T01:58:16.013Z,79.14
2022-09-04T02:01:21.173Z,77.79
2022-09-04T02:03:51.660Z,79.06
2022-09-04T02:06:27.701Z,78.15
2022-09-04T02:09:19.450Z,79.31
2022-09-04T02:11:51.131Z,76.24
2022-09-04T02:14:40.285Z,76.21
2022-09-04T02:17:13.476Z,76.11
2022-09-04T02:19:48.848Z,77.41
2022-09-04T02:22:39.995Z,77.05
2022-09-04T02:25:29.838Z,75.20
2022-09-04T02:28:11.630Z,73.63
2022-09-04T02:30:54.107Z,74.62
2022-09-04T02:33:37.997Z,75.54
2022-09-04T02:36:39.787Z,75.77
2022-09-04T02:39:25.794Z,77.15
2022-09-04T02:42:12.702Z,74.82
2022-09-04T02:44:42.462Z,75.04
2022-09-04T02:47:31.782Z,75.18
2022-09-04T02:50:49.445Z,75.67
2022-09-04T02:53:37.652Z,75.76
2022-09-04T02:56:26.159Z,76.58
2022-09-04T02:59:20.776Z,78.33
2022-09-04T03:01:58.305Z,78.11
2022-09-04T03:05:23.804Z,77.69
2022-09-04T03:08:04.965Z,76.85
2022-09-04T03:10:39.507Z,78.63
2022-09-04T03:13:27.928Z,76.26
2022-09-04T03:16:06.850Z,77.16
2022-09-04T03:19:12.185Z,78.10
2022-09-04T03:21:55.942Z,78.59
2022-09-04T03:24:30.698Z,77.98
2022-09-04T03:27:03.091Z,80.40
2022-09-04T03:29:48.409Z,78.87
2022-09-04T03:32:29.561Z,79.40
2022-09-04T03:35:46.709Z,80.33
2022-09-04T03:38:23.961Z,79.55
2022-09-04T03:41:13.167Z,79.59
2022-09-04T03:43:44.376Z,80.75
2022-09-04T03:46:16.976Z,80.76
2022-09-04T03:49:00.229Z,79.93
2022-09-04T03:51:34.996Z,79.71
2022-09-04T03:54:26.247Z,79.03
2022-09-04T03:57:07.998Z,79.32
2022-09-04T04:00:02.167Z,80.74
2022-09-04T04:02:54.923Z,81.43
2022-09-04T04:05:48.253Z,80.23
2022-09-04T04:08:37.242Z,81.80
2022-09-04T04:11:28.436Z,81.70
2022-09-04T04:14:21.996Z,81.90
2022-09-04T04:17:04.045Z,81.59
2022-09-04T04:19:47.675Z,81.73
2022-09-04T04:22:20.313Z,82.06
2022-09-04T04:25:02.304Z,81.29
2022-09-04T04:27:57.688Z,83.11
2022-09-04T04:30:24.429Z,82.47
2022-09-04T04:33:15.671Z,83.11
2022-09-04T04:35:48.261Z,81.93
2022-09-04T04:38:17.942Z,82.33
2022-09-04T04:41:09.361Z,83.21
2022-09-04T04:44:03.984Z,84.21
2022-09-04T04:46:42.786Z,84.70
2022-09-04T04:49:24.663Z,83.49
2022-09-04T04:52:11.903Z,83.41
2022-09-04T04:54:50.733Z,82.18
2022-09-04T04:57:34.612Z,83.08
2022-09-04T05:00:38.633Z,83.76
2022-09-04T05:03:39.055Z,83.12
2022-09-04T05:06:16.938Z,81.85
2022-09-04T05:09:13.227Z,80.13
2022-09-04T05:11:52.482Z,81.46
2022-09-04T05:14:44.194Z,80.96
2022-09-04T05:17:31.767Z,79.93
2022-09-04T05:20:25.827Z,81.74
2022-09-04T05:23:05.932Z,81.43
2022-09-04T05:25:50.606Z,82.28
2022-09-04T05:28:26.432Z,80.98
2022-09-04T05:30:53.106Z,82.30
2022-09-04T05:33:37.598Z,82.29
2022-09-04T05:36:16.609Z,81.22
2022-09-04T05:39:08.304Z,78.89
2022-09-04T05:42:06.371Z,79.81
2022-09-04T05:44:58.779Z,80.66
2022-09-04T05:47:50.540Z,78.28
2022-09-04T05:50:33.396Z,78.10
2022-09-04T05:53:06.034Z,79.31
2022-09-04T05:55:57.013Z,80.33
2022-09-04T05:58:47.555Z,80.48
2022-09-04T06:01:17.340Z,77.17
2022-09-04T06:04:07.514Z,79.75
2022-09-04T06:06:52.203Z,79.45
2022-09-04T06:09:27.767Z,80.30
2022-09-04T06:11:57.220Z,80.08
2022-09-04T06:14:29.830Z,80.36
2022-09-04T06:16:59.516Z,78.11
2022-09-04T06:19:50.646Z,77.50
2022-09-04T06:22:20.168Z,78.42
2022-09-04T06:25:16.898Z,76.96
2022-09-04T06:28:28.982Z,78.24
2022-09-04T06:31:01.528Z,77.58
2022-09-04T06:33:37.375Z,78.78
2022-09-04T06:36:07.217Z,78.45
2022-09-04T06:39:15.753Z,78.34
2022-09-04T06:41:54.487Z,79.43
2022-09-04T06:44:51.640Z,77.64
2022-09-04T06:47:47.147Z,78.16
2022-09-04T06:50:25.632Z,78.67
2022-09-04T06:53:19.763Z,78.50
2022-09-04T06:56:10.380Z,75.96
2022-09-04T06:58:46.289Z,77.52
2022-09-04T07:01:44.612Z,79.75
2022-09-04T07:04:11.225Z,79.00
2022-09-04T07:06:49.835Z,79.96
2022-09-04T07:09:25.812Z,76.35
2022-09-04T07:12:10.749Z,77.72
2022-09-04T07:15:05.309Z,75.46
2022-09-04T07:18:14.615Z,75.86
2022-09-04T07:20:52.955Z,75.07
2022-09-04T07:23:50.682Z,75.66
2022-09-04T07:26:47.876Z,76.02
2022-09-04T07:29:31.658Z,78.28
2022-09-04T07:32:11.537Z,78.60
2022-09-04T07:34:56.223Z,78.30
2022-09-04T07:37:50.642Z,79.71
2022-09-04T07:40:34.374Z,78.50
2022-09-04T07:43:36.621Z,77.85
2022-09-04T07:46:19.401Z,78.06
2022-09-04T07:49:08.409Z,80.50
2022-09-04T07:51:44.380Z,80.55
2022-09-04T07:54:34.046Z,80.51
2022-09-04T07:57:45.200Z,78.98
2022-09-04T08:00:17.168Z,79.42
2022-09-04T08:03:01.942Z,79.07
2022-09-04T08:05:31.548Z,73.48
2022-09-04T08:08:31.022Z,78.19
2022-09-04T08:11:35.811Z,78.69
2022-09-04T08:14:14.426Z,77.91
2022-09-04T08:17:32.115Z,80.40
2022-09-04T08:20:16.739Z,80.18
2022-09-04T08:22:52.358Z,79.43
2022-09-04T08:25:41.187Z,76.90
2022-09-04T08:28:28.056Z,75.46
2022-09-04T08:31:17.993Z,76.48
2022-09-04T08:34:14.849Z,78.00
2022-09-04T08:36:59.297Z,78.15
2022-09-04T08:39:57.208Z,75.67
2022-09-04T08:42:45.267Z,75.57
2022-09-04T08:45:50.236Z,74.15
2022-09-04T08:48:47.231Z,72.58
2022-09-04T08:51:32.106Z,69.78
2022-09-04T08:54:26.188Z,72.43
2022-09-04T08:57:18.760Z,72.53
2022-09-04T08:59:51.373Z,71.86
2022-09-04T09:02:30.500Z,73.13
2022-09-04T09:05:28.867Z,72.47
2022-09-04T09:08:16.319Z,68.99
2022-09-04T09:10:48.862Z,68.13
2022-09-04T09:13:33.993Z,68.25
2022-09-04T09:16:09.154Z,68.38
2022-09-04T09:18:40.564Z,69.68
2022-09-04T09:21:42.234Z,74.00
2022-09-04T09:24:33.651Z,71.44
2022-09-04T09:27:35.367Z,72.08
2022-09-04T09:30:14.823Z,72.67
2022-09-04T09:32:50.083Z,73.79
2022-09-04T09:35:44.540Z,71.78
2022-09-04T09:38:20.128Z,68.79
2022-09-04T09:40:52.393Z,72.76
2022-09-04T09:43:28.519Z,73.26
2022-09-04T09:46:17.891Z,73.44
2022-09-04T09:49:14.963Z,72.32
2022-09-04T09:52:03.307Z,72.22
2022-09-04T09:54:58.516Z,72.77
2022-09-04T09:57:34.142Z,72.03
2022-09-04T10:00:19.655Z,71.22
2022-09-04T10:03:23.931Z,71.49
2022-09-04T10:06:15.397Z,72.79
2022-09-04T10:09:22.518Z,70.19
2022-09-04T10:12:10.081Z,68.61
2022-09-04T10:14:55.391Z,70.50
2022-09-04T10:17:31.124Z,68.99
2022-09-04T10:20:06.840Z,67.79
2022-09-04T10:22:48.640Z,68.04
2022-09-04T10:25:31.895Z,67.79
2022-09-04T10:28:34.417Z,68.71
2022-09-04T10:31:25.077Z,68.51
2022-09-04T10:34:35.591Z,65.82
2022-09-04T10:37:22.926Z,67.40
2022-09-04T10:40:14.133Z,67.63
2022-09-04T10:42:46.229Z,68.33
2022-09-04T10:45:26.972Z,68.27
2022-09-04T10:48:24.211Z,69.00
2022-09-04T10:51:03.386Z,68.54
2022-09-04T10:54:04.241Z,68.93
2022-09-04T10:56:58.173Z,68.17
2022-09-04T10:59:59.099Z,67.55
2022-09-04T11:02:42.404Z,67.81
2022-09-04T11:05:20.093Z,68.31
2022-09-04T11:08:12.324Z,68.95
2022-09-04T11:10:54.249Z,69.57
2022-09-04T11:13:23.905Z,67.64
2022-09-04T11:16:21.928Z,68.83
2022-09-04T11:19:33.065Z,70.63
2022-09-04T11:22:22.498Z,72.14
2022-09-04T11:25:17.989Z,74.67
2022-09-04T11:28:10.980Z,76.49
2022-09-04T11:30:54.297Z,77.00
2022-09-04T11:33:33.920Z,75.31
2022-09-04T11:36:32.766Z,76.66
2022-09-04T11:39:08.165Z,76.84
2022-09-04T11:42:04.850Z,76.89
2022-09-04T11:44:40.303Z,76.80
2022-09-04T11:47:34.579Z,77.39
2022-09-04T11:50:22.284Z,77.96
2022-09-04T11:53:16.930Z,78.05
2022-09-04T11:56:18.292Z,76.22
2022-09-04T11:58:47.968Z,75.31
2022-09-04T12:01:23.672Z,74.86
2022-09-04T12:04:02.415Z,74.30
2022-09-04T12:06:54.097Z,76.11
2022-09-04T12:09:38.406Z,75.01
2022-09-04T12:12:37.129Z,73.22
2022-09-04T12:15:08.576Z,73.76
2022-09-04T12:17:47.550Z,74.26
2022-09-04T12:21:05.106Z,72.96
2022-09-04T12:23:38.797Z,70.54
2022-09-04T12:26:34.874Z,71.08
2022-09-04T12:29:26.041Z,71.10
2022-09-04T12:32:04.824Z,70.09
2022-09-04T12:34:57.174Z,68.95
2022-09-04T12:37:55.788Z,68.82
2022-09-04T12:40:53.180Z,69.23
2022-09-04T12:44:01.854Z,70.27
2022-09-04T12:46:31.410Z,67.66
2022-09-04T12:49:16.938Z,68.59
2022-09-04T12:52:00.890Z,69.40
2022-09-04T12:54:50.907Z,67.34
2022-09-04T12:57:59.179Z,66.08
2022-09-04T13:00:45.871Z,65.80
2022-09-04T13:03:35.839Z,67.48
2022-09-04T13:06:41.457Z,66.50
2022-09-04T13:09:29.801Z,66.95
2022-09-04T13:12:02.174Z,65.46
2022-09-04T13:14:58.843Z,63.62
2022-09-04T13:17:44.367Z,62.12
2022-09-04T13:20:26.100Z,62.55
2022-09-04T13:23:11.185Z,59.96
2022-09-04T13:25:55.828Z,61.32
2022-09-04T13:28:50.132Z,59.72
2022-09-04T13:31:24.605Z,59.48
2022-09-04T13:34:26.928Z,58.91
2022-09-04T13:37:03.457Z,55.22
2022-09-04T13:39:55.161Z,57.79
2022-09-04T13:43:03.179Z,54.78
2022-09-04T13:45:43.595Z,55.69
2022-09-04T13:48:37.123Z,54.08
2022-09-04T13:51:14.043Z,56.86
2022-09-04T13:54:03.574Z,55.69
2022-09-04T13:56:56.005Z,55.73
2022-09-04T13:59:23.669Z,55.40
2022-09-04T14:01:55.147Z,54.92
2022-09-04T14:04:30.903Z,54.27
2022-09-04T14:07:00.751Z,56.59
2022-09-04T14:09:29.871Z,54.47
2022-09-04T14:12:29.003Z,54.99
2022-09-04T14:15:13.756Z,54.75
2022-09-04T14:17:52.494Z,55.73
2022-09-04T14:20:29.123Z,56.72
2022-09-04T14:23:35.943Z,55.54
2022-09-04T14:26:15.860Z,55.49
2022-09-04T14:28:48.504Z,54.42
2022-09-04T14:31:34.172Z,54.69
2022-09-04T14:34:09.977Z,53.83
2022-09-04T14:37:00.537Z,51.84
2022-09-04T14:39:39.664Z,53.61
2022-09-04T14:42:14.996Z,54.85
2022-09-04T14:44:53.348Z,55.50
2022-09-04T14:47:49.767Z,56.00
2022-09-04T14:50:17.814Z,56.28
2022-09-04T14:52:52.684Z,57.22
2022-09-04T14:55:31.187Z,57.19
2022-09-04T14:58:14.861Z,58.67
2022-09-04T15:01:07.060Z,56.99
2022-09-04T15:03:49.377Z,56.51
2022-09-04T15:06:25.306Z,56.71
2022-09-04T15:08:54.224Z,57.71
2022-09-04T15:11:34.735Z,56.91
2022-09-04T15:14:28.952Z,57.29
2022-09-04T15:17:01.085Z,56.83
2022-09-04T15:19:39.941Z,60.75
2022-09-04T15:22:21.644Z,57.89
2022-09-04T15:25:13.070Z,57.47
2022-09-04T15:28:03.478Z,57.70
2022-09-04T15:30:41.503Z,56.29
2022-09-04T15:33:13.673Z,56.30
2022-09-04T15:35:40.601Z,56.54
2022-09-04T15:38:24.445Z,57.76
2022-09-04T15:41:14.983Z,57.44
2022-09-04T15:43:54.682Z,58.00
2022-09-04T15:46:21.273Z,57.90
2022-09-04T15:49:13.277Z,57.24
2022-09-04T15:51:44.072Z,58.18
2022-09-04T15:54:10.717Z,57.85
2022-09-04T15:56:55.637Z,56.79
2022-09-04T15:59:47.966Z,55.80
2022-09-04T16:02:35.301Z,57.02
2022-09-04T16:05:14.605Z,56.90
2022-09-04T16:07:59.518Z,56.08
2022-09-04T16:10:42.961Z,57.13
2022-09-04T16:13:57.814Z,57.73
2022-09-04T16:16:33.314Z,56.99
2022-09-04T16:19:17.268Z,58.17
2022-09-04T16:22:00.367Z,58.35
2022-09-04T16:24:41.507Z,56.10
2022-09-04T16:27:12.952Z,55.29
2022-09-04T16:29:49.820Z,55.41
2022-09-04T16:32:26.322Z,55.43
2022-09-04T16:35:14.081Z,55.29
2022-09-04T16:37:51.636Z,55.73
2022-09-04T16:40:18.226Z,55.13
2022-09-04T16:42:54.240Z,56.15
2022-09-04T16:45:36.382Z,55.41
2022-09-04T16:48:37.665Z,56.84
2022-09-04T16:51:40.165Z,57.53
2022-09-04T16:54:28.739Z,58.56
2022-09-04T16:57:13.487Z,59.34
2022-09-04T16:59:53.583Z,59.68
2022-09-04T17:02:35.910Z,60.00
2022-09-04T17:05:28.375Z,61.29
2022-09-04T17:08:04.387Z,60.43
2022-09-04T17:10:40.718Z,62.66
2022-09-04T17:13:37.074Z,62.72
2022-09-04T17:16:19.009Z,63.02
2022-09-04T17:18:48.997Z,63.50
2022-09-04T17:23:21.438Z,61.75
2022-09-04T17:28:58.917Z,61.95
2022-09-04T17:29:22.446Z,61.83
2022-09-04T17:30:28.790Z,63.87
2022-09-04T17:37:22.134Z,63.43
2022-09-04T17:40:42.935Z,62.72
2022-09-04T17:40:51.296Z,63.44
2022-09-04T17:42:09.570Z,63.73
2022-09-04T17:44:55.868Z,63.28
2022-09-04T17:47:27.401Z,64.07
2022-09-04T17:49:55.820Z,63.54
2022-09-04T17:53:01.362Z,63.97
2022-09-04T17:55:31.542Z,63.95
2022-09-04T17:58:35.514Z,65.98
2022-09-04T18:01:30.856Z,65.65
2022-09-04T18:04:21.582Z,64.95
2022-09-04T18:07:21.928Z,65.59
2022-09-04T18:10:03.518Z,66.17
2022-09-04T18:13:01.385Z,66.94
2022-09-04T18:15:36.819Z,66.96
2022-09-04T18:18:09.248Z,67.44
2022-09-04T18:20:54.289Z,67.22
2022-09-04T18:23:52.432Z,67.64
2022-09-04T18:26:19.064Z,67.35
2022-09-04T18:28:59.015Z,67.08
2022-09-04T18:37:11.211Z,68.06
2022-09-04T18:37:24.932Z,68.45
2022-09-04T18:37:47.314Z,69.49
2022-09-04T18:40:36.011Z,69.32
2022-09-04T18:50:28.733Z,70.89
2022-09-04T18:50:34.150Z,71.13
2022-09-04T18:50:43.620Z,71.33
2022-09-04T18:52:04.951Z,72.48
2022-09-04T18:54:38.803Z,72.28
2022-09-04T18:57:29.871Z,72.63
2022-09-04T19:00:08.711Z,73.24
2022-09-04T19:02:53.985Z,73.62
2022-09-04T19:05:24.246Z,73.98
2022-09-04T19:07:56.934Z,73.85
2022-09-04T19:10:27.335Z,74.91
2022-09-04T19:13:08.275Z,75.70
2022-09-04T19:15:45.997Z,76.00
2022-09-04T19:18:33.916Z,76.88
2022-09-04T19:21:08.161Z,77.50
2022-09-04T19:24:04.059Z,77.05
2022-09-04T19:27:01.740Z,76.75
2022-09-04T19:29:52.512Z,76.95
2022-09-04T19:32:48.536Z,76.96
2022-09-04T19:35:59.817Z,77.26
2022-09-04T19:42:07.450Z,77.47
2022-09-04T19:46:02.418Z,76.72
2022-09-04T19:46:14.942Z,75.62
2022-09-04T19:47:39.261Z,74.86
2022-09-04T19:52:46.467Z,74.57
2022-09-04T19:53:37.349Z,75.74
2022-09-04T19:56:07.905Z,75.25
2022-09-04T19:58:44.209Z,76.19
2022-09-04T20:01:17.441Z,77.60
2022-09-04T20:04:19.010Z,78.58
2022-09-04T20:06:55.422Z,78.12
2022-09-04T20:09:24.805Z,77.87
2022-09-04T20:12:05.946Z,77.06
2022-09-04T20:15:15.054Z,76.56
2022-09-04T20:18:08.087Z,75.69
2022-09-04T20:20:44.940Z,75.87
2022-09-04T20:23:44.099Z,76.12
2022-09-04T20:26:42.630Z,77.37
2022-09-04T20:29:40.276Z,77.20
2022-09-04T20:32:16.138Z,77.67
2022-09-04T20:35:33.305Z,76.92
2022-09-04T20:38:14.528Z,77.07
2022-09-04T20:41:00.022Z,78.29
2022-09-04T20:43:51.175Z,78.07
2022-09-04T20:52:44.254Z,77.79
2022-09-04T20:52:55.059Z,76.11
2022-09-04T20:52:58.239Z,76.86
2022-09-04T20:56:03.503Z,76.46
2022-09-04T21:02:57.823Z,75.55
2022-09-04T21:03:18.527Z,75.31
2022-09-04T21:04:56.143Z,76.05
2022-09-04T21:07:47.701Z,75.59
2022-09-04T21:10:23.350Z,75.65
2022-09-04T21:13:27.736Z,75.19
2022-09-04T21:16:12.954Z,76.75
2022-09-04T21:19:28.255Z,76.58
2022-09-04T21:22:32.888Z,77.96
2022-09-04T21:25:19.015Z,78.11
2022-09-04T21:27:59.346Z,78.69
2022-09-04T21:30:47.701Z,78.73
2022-09-04T21:33:35.907Z,80.30
2022-09-04T21:36:27.619Z,79.72
2022-09-04T21:39:09.689Z,80.18
2022-09-04T21:41:58.477Z,81.37
2022-09-04T21:44:45.614Z,81.36
2022-09-04T21:47:34.070Z,80.86
2022-09-04T21:50:22.975Z,80.44
2022-09-04T21:53:18.626Z,80.68
2022-09-04T21:57:45.790Z,79.95
2022-09-04T22:02:38.114Z,79.35
2022-09-04T22:02:38.115Z,80.04
2022-09-04T22:05:04.459Z,80.64
2022-09-04T22:11:56.855Z,80.57
2022-09-04T22:13:43.608Z,79.60
2022-09-04T22:13:49.979Z,81.18
2022-09-04T22:16:51.411Z,81.98
2022-09-04T22:19:55.025Z,81.26
2022-09-04T22:22:52.665Z,81.10
2022-09-04T22:25:48.130Z,82.56
2022-09-04T22:28:32.978Z,82.44
2022-09-04T22:31:06.558Z,82.14
2022-09-04T22:34:15.560Z,81.97
2022-09-04T22:37:08.061Z,81.26
2022-09-04T22:39:49.460Z,82.67
2022-09-04T22:42:27.932Z,82.85
2022-09-04T22:45:16.005Z,83.54
2022-09-04T22:47:45.249Z,83.18
2022-09-04T22:50:49.407Z,84.67
2022-09-04T22:53:38.684Z,84.26
2022-09-04T22:56:24.151Z,84.16
2022-09-04T22:58:55.583Z,83.91
2022-09-04T23:02:13.426Z,83.69
2022-09-04T23:04:46.899Z,83.88
2022-09-04T23:11:58.603Z,83.84
2022-09-04T23:13:54.846Z,84.64
2022-09-04T23:13:56.886Z,83.96
2022-09-04T23:16:45.450Z,83.85
2022-09-04T23:22:32.883Z,83.44
2022-09-04T23:26:44.990Z,85.89
2022-09-04T23:26:53.431Z,84.59
2022-09-04T23:28:35.692Z,84.86
2022-09-04T23:31:28.527Z,85.17
2022-09-04T23:34:04.882Z,83.98
2022-09-04T23:36:50.032Z,83.82
2022-09-04T23:39:28.422Z,83.58
2022-09-04T23:42:32.664Z,82.58
2022-09-04T23:45:05.010Z,82.65
2022-09-04T23:48:01.223Z,83.12
2022-09-04T23:50:50.697Z,84.03
2022-09-04T23:53:58.084Z,82.80
2022-09-04T23:56:35.708Z,83.97
2022-09-04T23:59:04.273Z,84.24
